Latest Weather Observations for Richmond
Issued at 8:11 pm EST Wednesday 6 May 2026 (issued every 10 minutes, with the page automatically refreshed every 10 minutes)
| Station Details | ID: 067105 | Name: RICHMOND RAAF | Lat: -33.60 | Lon: 150.78 | Height: 19.0 m |
| Date/Time EST |
Temp °C |
App Temp °C |
Dew Point °C |
Rel Hum % |
Delta-T °C |
Wind | Press QNH hPa |
Press MSL hPa |
Rain since 9am mm |
||||
|---|---|---|---|---|---|---|---|---|---|---|---|---|---|
| Dir | Spd km/h |
Gust km/h |
Spd kts |
Gust kts |
|||||||||
| 06/08:00pm | 14.4 | 15.0 | 11.9 | 85 | 1.3 | CALM | 0 | 0 | 0 | 0 | 1016.4 | 1016.4 | 0.0 |
| 06/07:32pm | 14.2 | 14.4 | 10.6 | 79 | 1.9 | CALM | 0 | 0 | 0 | 0 | 1016.4 | 1016.4 | 0.0 |
| 06/07:30pm | 14.2 | 14.4 | 10.6 | 79 | 1.9 | CALM | 0 | 0 | 0 | 0 | 1016.4 | 1016.4 | 0.0 |
| 06/07:09pm | 15.2 | 15.6 | 11.4 | 78 | 2.0 | CALM | 0 | 0 | 0 | 0 | 1016.3 | 1016.3 | 0.0 |
| 06/07:00pm | 15.2 | 15.6 | 11.2 | 77 | 2.1 | CALM | 0 | 0 | 0 | 0 | 1016.3 | 1016.3 | 0.0 |
| 06/06:30pm | 16.6 | 16.1 | 12.0 | 74 | 2.5 | NNE | 6 | 7 | 3 | 4 | 1016.2 | 1016.2 | 0.0 |
| 06/06:00pm | 16.5 | 16.8 | 11.0 | 70 | 2.9 | CALM | 0 | 0 | 0 | 0 | 1016.0 | 1016.0 | 0.0 |
| 06/05:30pm | 18.4 | 18.8 | 11.2 | 63 | 3.9 | CALM | 0 | 0 | 0 | 0 | 1015.9 | 1015.9 | 0.0 |
| 06/05:00pm | 20.3 | 19.6 | 11.5 | 57 | 4.9 | NE | 6 | 7 | 3 | 4 | 1015.7 | 1015.7 | 0.0 |
| 06/04:30pm | 21.6 | 20.3 | 11.3 | 52 | 5.7 | NNE | 9 | 13 | 5 | 7 | 1015.8 | 1015.8 | 0.0 |
| 06/04:00pm | 22.3 | 20.7 | 11.7 | 51 | 5.9 | NNE | 11 | 17 | 6 | 9 | 1016.1 | 1016.1 | 0.0 |
| 06/03:30pm | 22.6 | 21.2 | 12.3 | 52 | 5.8 | NE | 11 | 17 | 6 | 9 | 1016.3 | 1016.3 | 0.0 |
| 06/03:00pm | 22.2 | 21.1 | 11.9 | 52 | 5.8 | NE | 9 | 15 | 5 | 8 | 1016.5 | 1016.5 | 0.0 |
| 06/02:30pm | 22.6 | 21.0 | 11.7 | 50 | 6.1 | ENE | 11 | 19 | 6 | 10 | 1016.8 | 1016.8 | 0.0 |
| 06/02:00pm | 22.2 | 20.4 | 11.0 | 49 | 6.2 | NE | 11 | 17 | 6 | 9 | 1017.2 | 1017.2 | 0.0 |
| 06/01:30pm | 22.4 | 21.4 | 12.4 | 53 | 5.7 | E | 9 | 13 | 5 | 7 | 1017.6 | 1017.6 | 0.0 |
| 06/01:00pm | 21.6 | 21.1 | 11.9 | 54 | 5.4 | SE | 6 | 11 | 3 | 6 | 1018.2 | 1018.2 | 0.0 |
| 06/12:30pm | 22.2 | 22.5 | 12.2 | 53 | 5.7 | W | 2 | 7 | 1 | 4 | 1018.7 | 1018.7 | 0.0 |
| 06/12:00pm | 20.5 | 19.5 | 10.3 | 52 | 5.5 | ESE | 6 | 11 | 3 | 6 | 1019.4 | 1019.4 | 0.0 |
| 06/11:30am | 19.1 | 18.1 | 10.4 | 57 | 4.7 | SE | 6 | 9 | 3 | 5 | 1019.9 | 1019.9 | 0.0 |
| 06/11:00am | 18.3 | 18.1 | 10.4 | 60 | 4.2 | SSE | 2 | 6 | 1 | 3 | 1020.4 | 1020.4 | 0.0 |
| 06/10:30am | 17.4 | 16.3 | 10.1 | 62 | 3.9 | NNE | 6 | 9 | 3 | 5 | 1020.8 | 1020.8 | 0.0 |
| 06/10:00am | 14.8 | 14.3 | 9.4 | 70 | 2.8 | W | 2 | 6 | 1 | 3 | 1021.2 | 1021.2 | 0.0 |
| 06/09:30am | 13.4 | 13.5 | 10.0 | 80 | 1.8 | CALM | 0 | 0 | 0 | 0 | 1021.3 | 1021.3 | 0.0 |
| 06/09:00am | 12.7 | 12.0 | 10.2 | 85 | 1.3 | NNE | 4 | 7 | 2 | 4 | 1021.3 | 1021.3 | 0.2 |
| 06/08:30am | 11.3 | 10.1 | 9.4 | 88 | 1.0 | NNE | 6 | 11 | 3 | 6 | 1021.4 | 1021.4 | 0.2 |
| 06/08:00am | 10.0 | 9.8 | 9.2 | 95 | 0.4 | CALM | 0 | 0 | 0 | 0 | 1021.4 | 1021.4 | 0.2 |
| 06/07:45am | 9.2 | 8.9 | 8.6 | 96 | 0.3 | CALM | 0 | 0 | 0 | 0 | 1021.4 | 1021.4 | 0.2 |
| 06/07:41am | 9.0 | 8.6 | 8.4 | 96 | 0.3 | CALM | 0 | 0 | 0 | 0 | 1021.5 | 1021.5 | 0.2 |
| 06/07:30am | 8.0 | 7.4 | 7.2 | 95 | 0.4 | CALM | 0 | 0 | 0 | 0 | 1021.4 | 1021.4 | 0.2 |
| 06/07:02am | 7.3 | 6.5 | 6.6 | 95 | 0.3 | CALM | 0 | 0 | 0 | 0 | 1021.3 | 1021.3 | 0.2 |
| 06/07:01am | 7.3 | 6.5 | 6.6 | 95 | 0.3 | CALM | 0 | 0 | 0 | 0 | 1021.3 | 1021.3 | 0.2 |
| 06/07:00am | 7.3 | 6.5 | 6.6 | 95 | 0.3 | CALM | 0 | 0 | 0 | 0 | 1021.3 | 1021.3 | 0.2 |
| 06/06:30am | 7.1 | 6.2 | 6.2 | 94 | 0.4 | CALM | 0 | 0 | 0 | 0 | 1021.2 | 1021.2 | 0.2 |
| 06/06:04am | 7.4 | 6.6 | 6.7 | 95 | 0.3 | CALM | 0 | 0 | 0 | 0 | 1021.0 | 1021.0 | 0.2 |
| 06/06:00am | 7.3 | 6.5 | 6.6 | 95 | 0.3 | CALM | 0 | 0 | 0 | 0 | 1021.0 | 1021.0 | 0.2 |
| 06/05:52am | 7.3 | 6.5 | 6.6 | 95 | 0.3 | CALM | 0 | 0 | 0 | 0 | 1021.0 | 1021.0 | 0.2 |
| 06/05:46am | 7.1 | 6.3 | 6.4 | 95 | 0.3 | CALM | 0 | 0 | 0 | 0 | 1020.9 | 1020.9 | 0.2 |
| 06/05:44am | 7.0 | 6.2 | 6.3 | 95 | 0.3 | CALM | 0 | 0 | 0 | 0 | 1020.9 | 1020.9 | 0.2 |
| 06/05:30am | 7.4 | 6.6 | 6.7 | 95 | 0.3 | CALM | 0 | 0 | 0 | 0 | 1020.9 | 1020.9 | 0.2 |
| 06/05:00am | 7.4 | 6.6 | 6.5 | 94 | 0.4 | CALM | 0 | 0 | 0 | 0 | 1020.8 | 1020.8 | 0.2 |
| 06/04:57am | 7.5 | 6.7 | 6.6 | 94 | 0.4 | CALM | 0 | 0 | 0 | 0 | 1020.8 | 1020.8 | 0.2 |
| 06/04:49am | 7.9 | 7.2 | 7.0 | 94 | 0.4 | CALM | 0 | 0 | 0 | 0 | 1020.8 | 1020.8 | 0.2 |
| 06/04:30am | 7.9 | 7.2 | 7.0 | 94 | 0.4 | CALM | 0 | 0 | 0 | 0 | 1020.8 | 1020.8 | 0.2 |
| 06/04:27am | 7.7 | 7.0 | 6.8 | 94 | 0.4 | CALM | 0 | 0 | 0 | 0 | 1020.8 | 1020.8 | 0.2 |
| 06/04:00am | 8.2 | 7.5 | 7.1 | 93 | 0.5 | CALM | 0 | 0 | 0 | 0 | 1020.8 | 1020.8 | 0.2 |
| 06/03:30am | 8.1 | 7.5 | 7.2 | 94 | 0.4 | CALM | 0 | 0 | 0 | 0 | 1020.8 | 1020.8 | 0.2 |
| 06/03:00am | 8.8 | 8.3 | 7.9 | 94 | 0.4 | CALM | 0 | 0 | 0 | 0 | 1020.9 | 1020.9 | 0.2 |
| 06/02:45am | 8.5 | 7.9 | 7.6 | 94 | 0.4 | CALM | 0 | 0 | 0 | 0 | 1021.0 | 1021.0 | 0.2 |
| 06/02:30am | 8.7 | 8.1 | 7.6 | 93 | 0.5 | CALM | 0 | 0 | 0 | 0 | 1021.1 | 1021.1 | 0.2 |
| 06/02:00am | 8.5 | 7.9 | 7.3 | 92 | 0.6 | CALM | 0 | 2 | 0 | 1 | 1021.2 | 1021.2 | 0.2 |
| 06/01:30am | 9.0 | 8.5 | 7.8 | 92 | 0.6 | CALM | 0 | 0 | 0 | 0 | 1021.6 | 1021.6 | 0.2 |
| 06/01:00am | 9.0 | 8.4 | 7.6 | 91 | 0.7 | CALM | 0 | 0 | 0 | 0 | 1021.5 | 1021.5 | 0.2 |
| 06/12:30am | 9.6 | 9.2 | 8.2 | 91 | 0.7 | CALM | 0 | 0 | 0 | 0 | 1021.6 | 1021.6 | 0.2 |
| 06/12:00am | 10.8 | 10.7 | 9.4 | 91 | 0.7 | CALM | 0 | 0 | 0 | 0 | 1021.6 | 1021.6 | 0.2 |
| Date/Time EST |
Temp °C |
App Temp °C |
Dew Point °C |
Rel Hum % |
Delta-T °C |
Wind | Press QNH hPa |
Press MSL hPa |
Rain since 9am mm |
||||
|---|---|---|---|---|---|---|---|---|---|---|---|---|---|
| Dir | Spd km/h |
Gust km/h |
Spd kts |
Gust kts |
|||||||||
| 05/11:30pm | 10.1 | 9.6 | 8.0 | 87 | 1.0 | CALM | 0 | 0 | 0 | 0 | 1021.7 | 1021.7 | 0.2 |
| 05/11:00pm | 10.7 | 10.4 | 8.6 | 87 | 1.0 | CALM | 0 | 0 | 0 | 0 | 1021.6 | 1021.6 | 0.2 |
| 05/10:30pm | 10.7 | 10.4 | 8.5 | 86 | 1.1 | CALM | 0 | 0 | 0 | 0 | 1021.6 | 1021.6 | 0.2 |
| 05/10:00pm | 11.2 | 9.2 | 8.6 | 84 | 1.3 | WSW | 9 | 9 | 5 | 5 | 1021.6 | 1021.6 | 0.2 |
| 05/09:30pm | 11.5 | 9.6 | 9.1 | 85 | 1.2 | SW | 9 | 11 | 5 | 6 | 1021.6 | 1021.6 | 0.2 |
| 05/09:00pm | 11.6 | 11.4 | 9.0 | 84 | 1.3 | CALM | 0 | 0 | 0 | 0 | 1021.4 | 1021.4 | 0.2 |
| 05/08:30pm | 12.3 | 11.4 | 9.1 | 81 | 1.6 | SW | 4 | 7 | 2 | 4 | 1021.1 | 1021.1 | 0.2 |
| 05/08:00pm | 12.6 | 12.1 | 9.4 | 81 | 1.6 | NNW | 2 | 7 | 1 | 4 | 1020.7 | 1020.7 | 0.2 |
| 05/07:30pm | 13.0 | 10.9 | 8.3 | 73 | 2.3 | SSW | 9 | 11 | 5 | 6 | 1020.4 | 1020.4 | 0.2 |
| 05/07:00pm | 13.3 | 12.8 | 9.4 | 77 | 2.0 | SSW | 2 | 11 | 1 | 6 | 1019.9 | 1019.9 | 0.2 |
| 05/06:30pm | 15.8 | 15.7 | 9.5 | 66 | 3.3 | CALM | 0 | 0 | 0 | 0 | 1019.2 | 1019.2 | 0.2 |
| 05/06:00pm | 17.7 | 16.1 | 8.8 | 56 | 4.6 | S | 7 | 9 | 4 | 5 | 1018.9 | 1018.9 | 0.2 |
| 05/05:30pm | 20.0 | 18.2 | 8.0 | 46 | 6.2 | S | 7 | 9 | 4 | 5 | 1018.2 | 1018.2 | 0.2 |
| 05/05:00pm | 21.4 | 19.8 | 8.0 | 42 | 7.0 | S | 6 | 11 | 3 | 6 | 1017.8 | 1017.8 | 0.2 |
| 05/04:30pm | 22.2 | 20.3 | 7.6 | 39 | 7.6 | S | 7 | 9 | 4 | 5 | 1017.5 | 1017.5 | 0.2 |
| 05/04:00pm | 23.3 | 21.4 | 7.4 | 36 | 8.3 | WSW | 7 | 11 | 4 | 6 | 1017.3 | 1017.3 | 0.2 |
| 05/03:30pm | 23.3 | 21.0 | 7.4 | 36 | 8.3 | WSW | 9 | 13 | 5 | 7 | 1017.2 | 1017.2 | 0.2 |
| 05/03:00pm | 23.1 | 21.1 | 7.2 | 36 | 8.2 | S | 7 | 11 | 4 | 6 | 1017.4 | 1017.4 | 0.2 |
| 05/02:30pm | 23.1 | 20.5 | 7.6 | 37 | 8.1 | SSE | 11 | 15 | 6 | 8 | 1017.0 | 1017.0 | 0.2 |
| 05/02:00pm | 23.5 | 21.6 | 9.1 | 40 | 7.7 | WSW | 9 | 20 | 5 | 11 | 1016.7 | 1016.7 | 0.2 |
| 05/01:58pm | 23.1 | 21.2 | 7.6 | 37 | 8.1 | SSW | 7 | 20 | 4 | 11 | 1016.7 | 1016.7 | 0.2 |
| 05/01:38pm | 23.3 | 20.6 | 9.0 | 40 | 7.7 | WNW | 13 | 22 | 7 | 12 | 1016.7 | 1016.7 | 0.2 |
| 05/01:30pm | 23.2 | 21.0 | 7.7 | 37 | 8.1 | NW | 9 | 17 | 5 | 9 | 1016.7 | 1016.7 | 0.2 |
| 05/01:00pm | 23.1 | 20.9 | 9.5 | 42 | 7.3 | WSW | 11 | 17 | 6 | 9 | 1017.1 | 1017.1 | 0.2 |
| 05/12:30pm | 22.6 | 19.5 | 8.7 | 41 | 7.4 | WNW | 15 | 24 | 8 | 13 | 1017.5 | 1017.5 | 0.2 |
| 05/12:00pm | 22.1 | 19.3 | 8.6 | 42 | 7.1 | W | 13 | 22 | 7 | 12 | 1017.9 | 1017.9 | 0.2 |
| 05/11:30am | 21.7 | 18.5 | 8.6 | 43 | 6.9 | WNW | 15 | 22 | 8 | 12 | 1018.3 | 1018.3 | 0.2 |
| 05/11:00am | 21.1 | 18.0 | 9.0 | 46 | 6.4 | WNW | 15 | 20 | 8 | 11 | 1018.8 | 1018.8 | 0.0 |
| 05/10:30am | 19.7 | 16.7 | 9.3 | 51 | 5.5 | WNW | 15 | 20 | 8 | 11 | 1019.2 | 1019.2 | 0.0 |
| 05/10:00am | 19.0 | 16.8 | 9.2 | 53 | 5.1 | W | 11 | 19 | 6 | 10 | 1019.4 | 1019.4 | 0.0 |
| 05/09:30am | 18.2 | 15.5 | 9.0 | 55 | 4.8 | WNW | 13 | 15 | 7 | 8 | 1019.8 | 1019.8 | 0.0 |
| 05/09:00am | 17.0 | 16.0 | 11.1 | 68 | 3.2 | NNW | 7 | 9 | 4 | 5 | 1020.1 | 1020.1 | 6.6 |
| 05/08:30am | 15.8 | 16.1 | 10.8 | 72 | 2.7 | CALM | 0 | 0 | 0 | 0 | 1019.9 | 1019.9 | 6.6 |
| 05/08:00am | 14.1 | 13.5 | 10.3 | 78 | 2.0 | NNW | 4 | 9 | 2 | 5 | 1019.5 | 1019.5 | 6.6 |
| 05/07:30am | 11.9 | 11.0 | 10.5 | 91 | 0.7 | NW | 6 | 9 | 3 | 5 | 1018.9 | 1018.9 | 6.6 |
| 05/07:00am | 9.9 | 7.9 | 8.5 | 91 | 0.7 | NW | 9 | 9 | 5 | 5 | 1018.5 | 1018.5 | 6.6 |
| 05/06:30am | 9.6 | 9.2 | 8.2 | 91 | 0.7 | CALM | 0 | 0 | 0 | 0 | 1018.2 | 1018.2 | 6.6 |
| 05/06:00am | 11.5 | 9.6 | 9.2 | 86 | 1.1 | WNW | 9 | 11 | 5 | 6 | 1017.8 | 1017.8 | 6.6 |
| 05/05:30am | 12.0 | 9.4 | 9.2 | 83 | 1.4 | WNW | 13 | 15 | 7 | 8 | 1017.4 | 1017.4 | 6.6 |
| 05/05:00am | 12.0 | 9.2 | 9.9 | 87 | 1.1 | WNW | 15 | 17 | 8 | 9 | 1017.2 | 1017.2 | 6.6 |
| 05/04:30am | 11.7 | 10.2 | 10.4 | 92 | 0.7 | W | 9 | 13 | 5 | 7 | 1017.0 | 1017.0 | 6.6 |
| 05/04:00am | 12.7 | 12.0 | 11.4 | 92 | 0.7 | NNW | 6 | 7 | 3 | 4 | 1016.6 | 1016.6 | 6.6 |
| 05/03:32am | 13.4 | 12.9 | 12.5 | 94 | 0.5 | NW | 7 | 11 | 4 | 6 | 1016.6 | 1016.6 | 6.6 |
| 05/03:30am | 13.8 | 13.4 | 13.0 | 95 | 0.4 | NW | 7 | 11 | 4 | 6 | 1016.6 | 1016.6 | 6.6 |
| 05/03:20am | 14.6 | 14.7 | 14.0 | 96 | 0.3 | NNW | 6 | 9 | 3 | 5 | 1016.6 | 1016.6 | 6.6 |
| 05/03:00am | 14.4 | 14.4 | 13.6 | 95 | 0.4 | NW | 6 | 7 | 3 | 4 | 1016.8 | 1016.8 | 6.6 |
| 05/02:30am | 15.8 | 17.5 | 15.2 | 96 | 0.3 | CALM | 0 | 0 | 0 | 0 | 1016.8 | 1016.8 | 6.6 |
| 05/02:22am | 15.5 | 17.0 | 14.7 | 95 | 0.5 | CALM | 0 | 0 | 0 | 0 | 1016.8 | 1016.8 | 6.6 |
| 05/02:00am | 15.8 | 17.4 | 15.0 | 95 | 0.5 | CALM | 0 | 0 | 0 | 0 | 1016.8 | 1016.8 | 6.6 |
| 05/01:30am | 16.2 | 18.0 | 15.4 | 95 | 0.5 | CALM | 0 | 0 | 0 | 0 | 1016.7 | 1016.7 | 6.6 |
| 05/01:01am | 17.0 | 19.0 | 15.9 | 93 | 0.6 | CALM | 0 | 0 | 0 | 0 | 1016.4 | 1016.4 | 6.6 |
| 05/01:00am | 17.0 | 19.0 | 15.9 | 93 | 0.6 | CALM | 0 | 0 | 0 | 0 | 1016.4 | 1016.4 | 6.6 |
| 05/12:36am | 17.1 | 19.1 | 16.1 | 94 | 0.6 | CALM | 0 | 0 | 0 | 0 | 1016.6 | 1016.6 | 6.6 |
| 05/12:30am | 17.1 | 19.1 | 16.1 | 94 | 0.6 | CALM | 0 | 0 | 0 | 0 | 1016.6 | 1016.6 | 6.6 |
| 05/12:16am | 17.2 | 18.9 | 16.1 | 93 | 0.7 | WSW | 2 | 7 | 1 | 4 | 1016.4 | 1016.4 | 6.6 |
| 05/12:00am | 17.4 | 18.9 | 16.6 | 95 | 0.5 | SW | 4 | 6 | 2 | 3 | 1016.5 | 1016.5 | 6.6 |
| Date/Time EST |
Temp °C |
App Temp °C |
Dew Point °C |
Rel Hum % |
Delta-T °C |
Wind | Press QNH hPa |
Press MSL hPa |
Rain since 9am mm |
||||
|---|---|---|---|---|---|---|---|---|---|---|---|---|---|
| Dir | Spd km/h |
Gust km/h |
Spd kts |
Gust kts |
|||||||||
| 04/11:30pm | 17.3 | 18.2 | 16.2 | 93 | 0.7 | S | 6 | 7 | 3 | 4 | 1016.4 | 1016.4 | 6.6 |
| 04/11:00pm | 17.7 | 19.3 | 16.0 | 90 | 1.0 | SSW | 2 | 7 | 1 | 4 | 1016.4 | 1016.4 | 6.4 |
| 04/10:30pm | 17.5 | 17.2 | 15.5 | 88 | 1.2 | SW | 11 | 13 | 6 | 7 | 1016.4 | 1016.4 | 6.4 |
| 04/10:00pm | 17.2 | 17.6 | 14.8 | 86 | 1.4 | SW | 6 | 15 | 3 | 8 | 1016.3 | 1016.3 | 6.4 |
| 04/09:30pm | 17.0 | 17.5 | 15.0 | 88 | 1.2 | ESE | 6 | 7 | 3 | 4 | 1016.1 | 1016.1 | 6.4 |
| 04/09:00pm | 17.2 | 18.8 | 14.8 | 86 | 1.4 | CALM | 0 | 0 | 0 | 0 | 1015.5 | 1015.5 | 6.4 |
| 04/08:30pm | 17.2 | 16.7 | 15.0 | 87 | 1.3 | NE | 11 | 13 | 6 | 7 | 1015.3 | 1015.3 | 6.4 |
| 04/08:00pm | 18.1 | 18.6 | 15.5 | 85 | 1.5 | ENE | 7 | 11 | 4 | 6 | 1014.9 | 1014.9 | 6.4 |
| 04/07:30pm | 18.7 | 19.4 | 16.1 | 85 | 1.5 | ENE | 7 | 11 | 4 | 6 | 1014.8 | 1014.8 | 6.4 |
| 04/07:00pm | 18.7 | 19.0 | 15.9 | 84 | 1.7 | NE | 9 | 11 | 5 | 6 | 1015.0 | 1015.0 | 6.4 |
| 04/06:30pm | 19.2 | 18.8 | 16.2 | 83 | 1.8 | NE | 13 | 15 | 7 | 8 | 1014.9 | 1014.9 | 6.4 |
| 04/06:00pm | 19.3 | 19.3 | 16.2 | 82 | 1.9 | NNE | 11 | 13 | 6 | 7 | 1014.7 | 1014.7 | 6.4 |
| 04/05:30pm | 19.4 | 19.4 | 16.2 | 82 | 1.9 | NNE | 11 | 15 | 6 | 8 | 1014.5 | 1014.5 | 6.4 |
| 04/05:00pm | 19.7 | 19.3 | 16.3 | 81 | 2.0 | NNE | 13 | 17 | 7 | 9 | 1014.4 | 1014.4 | 6.4 |
| 04/04:30pm | 20.3 | 19.7 | 16.7 | 80 | 2.2 | NE | 15 | 20 | 8 | 11 | 1014.4 | 1014.4 | 6.4 |
| 04/04:00pm | 19.9 | 19.5 | 17.1 | 84 | 1.7 | NE | 15 | 19 | 8 | 10 | 1014.4 | 1014.4 | 6.4 |
| 04/03:30pm | 19.8 | 18.4 | 16.6 | 82 | 1.9 | NE | 19 | 24 | 10 | 13 | 1014.4 | 1014.4 | 6.4 |
| 04/03:00pm | 19.7 | 18.3 | 16.9 | 84 | 1.7 | NE | 20 | 24 | 11 | 13 | 1014.5 | 1014.5 | 6.4 |
| 04/02:30pm | 19.1 | 18.1 | 16.7 | 86 | 1.4 | NNE | 17 | 20 | 9 | 11 | 1014.7 | 1014.7 | 6.4 |
| 04/02:00pm | 18.9 | 17.9 | 16.5 | 86 | 1.4 | NNE | 17 | 22 | 9 | 12 | 1014.9 | 1014.9 | 6.4 |
| 04/01:30pm | 18.8 | 18.0 | 17.1 | 90 | 1.0 | NNE | 17 | 22 | 9 | 12 | 1015.2 | 1015.2 | 6.4 |
| 04/01:00pm | 17.7 | 18.8 | 16.7 | 94 | 0.6 | N | 6 | 9 | 3 | 5 | 1016.0 | 1016.0 | 6.4 |
| 04/12:30pm | 16.9 | 17.2 | 15.9 | 94 | 0.6 | NE | 9 | 11 | 5 | 6 | 1016.4 | 1016.4 | 6.4 |
| 04/12:16pm | 16.9 | 17.7 | 15.9 | 94 | 0.6 | ENE | 6 | 7 | 3 | 4 | 1016.8 | 1016.8 | 6.4 |
| 04/12:00pm | 16.8 | 17.6 | 15.8 | 94 | 0.6 | ENE | 6 | 7 | 3 | 4 | 1017.2 | 1017.2 | 6.0 |
| 04/11:55am | 16.8 | 17.6 | 15.8 | 94 | 0.6 | ENE | 6 | 9 | 3 | 5 | 1017.3 | 1017.3 | 5.2 |
| 04/11:30am | 16.9 | 17.5 | 15.9 | 94 | 0.6 | ENE | 7 | 9 | 4 | 5 | 1017.5 | 1017.5 | 3.6 |
| 04/11:20am | 16.9 | 17.5 | 15.9 | 94 | 0.6 | E | 7 | 11 | 4 | 6 | 1017.7 | 1017.7 | 3.2 |
| 04/11:07am | 17.0 | 17.7 | 16.0 | 94 | 0.6 | ESE | 7 | 11 | 4 | 6 | 1017.8 | 1017.8 | 2.8 |
| 04/11:00am | 17.0 | 18.6 | 16.0 | 94 | 0.6 | ENE | 2 | 9 | 1 | 5 | 1017.9 | 1017.9 | 2.8 |
| 04/10:47am | 16.8 | 17.9 | 15.7 | 93 | 0.6 | ENE | 4 | 7 | 2 | 4 | 1018.2 | 1018.2 | 2.0 |
| 04/10:30am | 16.9 | 18.9 | 15.9 | 94 | 0.6 | CALM | 0 | 0 | 0 | 0 | 1017.9 | 1017.9 | 1.2 |
| 04/10:00am | 16.8 | 18.0 | 15.8 | 94 | 0.6 | S | 4 | 7 | 2 | 4 | 1017.9 | 1017.9 | 0.8 |
| 04/09:54am | 16.8 | 18.7 | 15.8 | 94 | 0.6 | CALM | 0 | 2 | 0 | 1 | 1017.8 | 1017.8 | 0.4 |
| 04/09:30am | 16.2 | 17.6 | 15.4 | 95 | 0.5 | S | 2 | 7 | 1 | 4 | 1017.7 | 1017.7 | 0.4 |
| 04/09:00am | 15.9 | 16.4 | 14.9 | 94 | 0.6 | ESE | 6 | 11 | 3 | 6 | 1017.9 | 1017.9 | 1.4 |
| 04/08:43am | 16.0 | 17.5 | 14.7 | 92 | 0.7 | CALM | 0 | 0 | 0 | 0 | 1018.1 | 1018.1 | 0.2 |
| 04/08:30am | 15.8 | 17.2 | 14.5 | 92 | 0.7 | CALM | 0 | 0 | 0 | 0 | 1017.9 | 1017.9 | 0.0 |
| 04/08:00am | 15.7 | 17.2 | 14.6 | 93 | 0.6 | CALM | 0 | 0 | 0 | 0 | 1017.2 | 1017.2 | 0.0 |
| 04/07:45am | 15.5 | 16.9 | 14.4 | 93 | 0.6 | CALM | 0 | 0 | 0 | 0 | 1017.1 | 1017.1 | 0.0 |
| 04/07:30am | 15.5 | 16.9 | 14.4 | 93 | 0.6 | CALM | 0 | 0 | 0 | 0 | 1017.0 | 1017.0 | 0.0 |
| 04/07:00am | 15.1 | 16.4 | 14.0 | 93 | 0.6 | CALM | 0 | 0 | 0 | 0 | 1016.8 | 1016.8 | 0.0 |
| 04/06:44am | 14.7 | 15.8 | 13.6 | 93 | 0.6 | CALM | 0 | 0 | 0 | 0 | 1016.7 | 1016.7 | 0.0 |
| 04/06:30am | 14.5 | 15.6 | 13.4 | 93 | 0.6 | CALM | 0 | 0 | 0 | 0 | 1016.6 | 1016.6 | 0.0 |
| 04/06:02am | 14.5 | 15.6 | 13.5 | 94 | 0.6 | CALM | 0 | 0 | 0 | 0 | 1016.5 | 1016.5 | 0.0 |
| 04/06:00am | 14.5 | 15.6 | 13.5 | 94 | 0.6 | CALM | 0 | 0 | 0 | 0 | 1016.4 | 1016.4 | 0.0 |
| 04/05:30am | 14.2 | 15.2 | 13.1 | 93 | 0.6 | CALM | 0 | 0 | 0 | 0 | 1016.1 | 1016.1 | 0.0 |
| 04/05:29am | 14.2 | 15.2 | 13.1 | 93 | 0.6 | CALM | 0 | 0 | 0 | 0 | 1016.1 | 1016.1 | 0.0 |
| 04/05:00am | 14.0 | 14.9 | 12.9 | 93 | 0.6 | CALM | 0 | 0 | 0 | 0 | 1016.0 | 1016.0 | 0.0 |
| 04/04:45am | 14.1 | 15.0 | 13.0 | 93 | 0.6 | CALM | 0 | 0 | 0 | 0 | 1016.2 | 1016.2 | 0.0 |
| 04/04:30am | 14.0 | 15.0 | 13.1 | 94 | 0.5 | CALM | 0 | 0 | 0 | 0 | 1016.1 | 1016.1 | 0.0 |
| 04/04:03am | 13.9 | 14.9 | 13.1 | 95 | 0.4 | CALM | 0 | 0 | 0 | 0 | 1016.1 | 1016.1 | 0.0 |
| 04/04:00am | 13.8 | 14.7 | 13.0 | 95 | 0.4 | CALM | 0 | 0 | 0 | 0 | 1016.0 | 1016.0 | 0.0 |
| 04/03:31am | 13.7 | 14.6 | 12.8 | 94 | 0.5 | CALM | 0 | 0 | 0 | 0 | 1016.1 | 1016.1 | 0.0 |
| 04/03:30am | 13.9 | 14.8 | 13.0 | 94 | 0.5 | CALM | 0 | 0 | 0 | 0 | 1016.1 | 1016.1 | 0.0 |
| 04/03:16am | 13.5 | 14.3 | 12.7 | 95 | 0.4 | CALM | 0 | 0 | 0 | 0 | 1016.2 | 1016.2 | 0.0 |
| 04/03:00am | 13.1 | 13.8 | 12.2 | 94 | 0.5 | CALM | 0 | 0 | 0 | 0 | 1016.3 | 1016.3 | 0.0 |
| 04/02:48am | 12.7 | 13.3 | 11.8 | 94 | 0.5 | CALM | 0 | 2 | 0 | 1 | 1016.5 | 1016.5 | 0.0 |
| 04/02:30am | 12.7 | 12.9 | 11.8 | 94 | 0.5 | SE | 2 | 7 | 1 | 4 | 1016.7 | 1016.7 | 0.0 |
| 04/02:14am | 13.0 | 13.6 | 11.9 | 93 | 0.6 | CALM | 0 | 0 | 0 | 0 | 1016.8 | 1016.8 | 0.0 |
| 04/02:00am | 12.9 | 13.5 | 11.8 | 93 | 0.6 | CALM | 0 | 0 | 0 | 0 | 1016.9 | 1016.9 | 0.0 |
| 04/01:30am | 13.7 | 14.6 | 12.8 | 94 | 0.5 | CALM | 0 | 0 | 0 | 0 | 1017.2 | 1017.2 | 0.0 |
| 04/01:00am | 13.5 | 14.2 | 12.2 | 92 | 0.7 | CALM | 0 | 0 | 0 | 0 | 1017.1 | 1017.1 | 0.0 |
| 04/12:30am | 14.7 | 15.9 | 13.7 | 94 | 0.6 | CALM | 0 | 0 | 0 | 0 | 1017.5 | 1017.5 | 0.0 |
| 04/12:12am | 14.5 | 15.6 | 13.4 | 93 | 0.6 | CALM | 0 | 0 | 0 | 0 | 1017.7 | 1017.7 | 0.0 |
| 04/12:00am | 14.4 | 15.4 | 13.3 | 93 | 0.6 | CALM | 0 | 0 | 0 | 0 | 1017.9 | 1017.9 | 0.0 |
| Date/Time EST |
Temp °C |
App Temp °C |
Dew Point °C |
Rel Hum % |
Delta-T °C |
Wind | Press QNH hPa |
Press MSL hPa |
Rain since 9am mm |
||||
|---|---|---|---|---|---|---|---|---|---|---|---|---|---|
| Dir | Spd km/h |
Gust km/h |
Spd kts |
Gust kts |
|||||||||
| 03/11:54pm | 14.4 | 15.4 | 13.3 | 93 | 0.6 | CALM | 0 | 0 | 0 | 0 | 1017.9 | 1017.9 | 0.0 |
| 03/11:30pm | 14.3 | 15.3 | 13.2 | 93 | 0.6 | CALM | 0 | 0 | 0 | 0 | 1018.1 | 1018.1 | 0.0 |
| 03/11:24pm | 14.5 | 15.6 | 13.4 | 93 | 0.6 | CALM | 0 | 0 | 0 | 0 | 1018.2 | 1018.2 | 0.0 |
| 03/11:00pm | 14.3 | 15.2 | 12.9 | 91 | 0.8 | CALM | 0 | 0 | 0 | 0 | 1018.4 | 1018.4 | 0.0 |
| 03/10:59pm | 14.3 | 15.2 | 12.9 | 91 | 0.8 | CALM | 0 | 0 | 0 | 0 | 1018.4 | 1018.4 | 0.0 |
| 03/10:44pm | 14.8 | 16.0 | 13.8 | 94 | 0.6 | CALM | 0 | 0 | 0 | 0 | 1018.5 | 1018.5 | 0.0 |
| 03/10:30pm | 14.9 | 16.0 | 13.4 | 91 | 0.8 | CALM | 0 | 0 | 0 | 0 | 1018.6 | 1018.6 | 0.0 |
| 03/10:00pm | 15.1 | 16.3 | 13.8 | 92 | 0.7 | CALM | 0 | 0 | 0 | 0 | 1018.8 | 1018.8 | 0.0 |
| 03/09:30pm | 15.1 | 16.1 | 13.3 | 89 | 1.0 | CALM | 0 | 0 | 0 | 0 | 1018.7 | 1018.7 | 0.0 |
| 03/09:00pm | 15.7 | 16.9 | 13.7 | 88 | 1.1 | CALM | 0 | 0 | 0 | 0 | 1018.6 | 1018.6 | 0.0 |
| 03/08:30pm | 16.1 | 17.2 | 13.6 | 85 | 1.4 | CALM | 0 | 0 | 0 | 0 | 1018.5 | 1018.5 | 0.0 |
Latest Capital City Observations: Canberra | Sydney | Melbourne | Brisbane | Adelaide | Perth | Hobart | Darwin
Other formats
Comma delimited format used in spreadsheet applications
http://www.bom.gov.au/fwo/IDN60901/IDN60901.95753.axf
JavaScript Object Notation format (JSON) in row-major order
http://www.bom.gov.au/fwo/IDN60901/IDN60901.95753.json
Data quality
Most of these data are generated automatically and are frequently updated. Quality checks on data are not normally performed. It is possible for incorrect values to appear. Refer to information at About Latest Weather Observations and please check the disclaimer before using these data.
